sensor_id;sensor_type;location;lat;lon;timestamp;P1;durP1;ratioP1;P2;durP2;ratioP2
20344;SDS011;10330;48.816;9.278;2023-08-06T00:01:42;8.60;;;5.60;;
20344;SDS011;10330;48.816;9.278;2023-08-06T00:04:08;9.50;;;7.55;;
20344;SDS011;10330;48.816;9.278;2023-08-06T00:06:34;6.38;;;5.53;;
20344;SDS011;10330;48.816;9.278;2023-08-06T00:09:00;7.70;;;5.50;;
20344;SDS011;10330;48.816;9.278;2023-08-06T00:11:26;7.47;;;5.13;;
20344;SDS011;10330;48.816;9.278;2023-08-06T00:13:53;8.82;;;5.13;;
20344;SDS011;10330;48.816;9.278;2023-08-06T00:16:19;12.38;;;8.02;;
20344;SDS011;10330;48.816;9.278;2023-08-06T00:18:45;11.02;;;6.57;;
20344;SDS011;10330;48.816;9.278;2023-08-06T00:21:11;9.00;;;6.40;;
20344;SDS011;10330;48.816;9.278;2023-08-06T00:23:41;9.18;;;5.30;;
20344;SDS011;10330;48.816;9.278;2023-08-06T00:26:07;7.65;;;5.32;;
20344;SDS011;10330;48.816;9.278;2023-08-06T00:28:33;10.65;;;6.10;;
20344;SDS011;10330;48.816;9.278;2023-08-06T00:31:00;7.63;;;5.28;;
20344;SDS011;10330;48.816;9.278;2023-08-06T00:33:26;4.75;;;4.35;;
20344;SDS011;10330;48.816;9.278;2023-08-06T00:35:52;6.70;;;4.43;;
20344;SDS011;10330;48.816;9.278;2023-08-06T00:38:18;4.63;;;3.58;;
20344;SDS011;10330;48.816;9.278;2023-08-06T00:40:44;7.90;;;4.13;;
20344;SDS011;10330;48.816;9.278;2023-08-06T00:43:10;3.85;;;3.55;;
20344;SDS011;10330;48.816;9.278;2023-08-06T00:45:37;5.57;;;3.80;;
20344;SDS011;10330;48.816;9.278;2023-08-06T00:48:03;4.53;;;3.83;;
20344;SDS011;10330;48.816;9.278;2023-08-06T00:50:32;7.60;;;4.05;;
20344;SDS011;10330;48.816;9.278;2023-08-06T00:52:58;6.38;;;4.38;;
20344;SDS011;10330;48.816;9.278;2023-08-06T00:55:25;7.00;;;4.80;;
20344;SDS011;10330;48.816;9.278;2023-08-06T00:57:51;5.57;;;4.25;;
20344;SDS011;10330;48.816;9.278;2023-08-06T01:00:22;6.45;;;4.18;;
20344;SDS011;10330;48.816;9.278;2023-08-06T01:02:49;6.40;;;4.60;;
20344;SDS011;10330;48.816;9.278;2023-08-06T01:05:15;4.65;;;3.90;;
20344;SDS011;10330;48.816;9.278;2023-08-06T01:13:27;8.18;;;4.88;;
20344;SDS011;10330;48.816;9.278;2023-08-06T01:16:05;6.65;;;4.72;;
20344;SDS011;10330;48.816;9.278;2023-08-06T01:18:33;4.30;;;3.90;;
20344;SDS011;10330;48.816;9.278;2023-08-06T01:20:59;7.90;;;4.10;;
20344;SDS011;10330;48.816;9.278;2023-08-06T01:23:25;4.55;;;4.15;;
20344;SDS011;10330;48.816;9.278;2023-08-06T01:28:40;7.05;;;4.10;;
20344;SDS011;10330;48.816;9.278;2023-08-06T01:31:21;5.60;;;4.10;;
20344;SDS011;10330;48.816;9.278;2023-08-06T01:33:51;5.00;;;3.92;;
20344;SDS011;10330;48.816;9.278;2023-08-06T01:36:19;3.25;;;2.95;;
20344;SDS011;10330;48.816;9.278;2023-08-06T01:38:53;5.50;;;3.42;;
20344;SDS011;10330;48.816;9.278;2023-08-06T01:41:19;3.22;;;2.92;;
20344;SDS011;10330;48.816;9.278;2023-08-06T01:43:46;2.97;;;2.67;;
20344;SDS011;10330;48.816;9.278;2023-08-06T01:46:12;3.83;;;3.17;;
20344;SDS011;10330;48.816;9.278;2023-08-06T01:48:38;4.55;;;4.13;;
20344;SDS011;10330;48.816;9.278;2023-08-06T01:51:04;8.10;;;4.65;;
20344;SDS011;10330;48.816;9.278;2023-08-06T01:53:32;3.35;;;3.05;;
20344;SDS011;10330;48.816;9.278;2023-08-06T01:55:58;3.28;;;2.78;;
20344;SDS011;10330;48.816;9.278;2023-08-06T01:58:25;3.47;;;3.10;;
20344;SDS011;10330;48.816;9.278;2023-08-06T02:00:51;8.52;;;3.08;;
20344;SDS011;10330;48.816;9.278;2023-08-06T02:03:20;2.90;;;2.67;;
20344;SDS011;10330;48.816;9.278;2023-08-06T02:05:48;9.63;;;3.33;;
20344;SDS011;10330;48.816;9.278;2023-08-06T02:08:14;3.45;;;3.15;;
20344;SDS011;10330;48.816;9.278;2023-08-06T02:10:40;2.83;;;2.63;;
20344;SDS011;10330;48.816;9.278;2023-08-06T02:13:07;2.78;;;2.58;;
20344;SDS011;10330;48.816;9.278;2023-08-06T02:15:33;3.53;;;2.70;;
20344;SDS011;10330;48.816;9.278;2023-08-06T02:18:03;5.82;;;2.80;;
20344;SDS011;10330;48.816;9.278;2023-08-06T02:20:29;6.45;;;3.22;;
20344;SDS011;10330;48.816;9.278;2023-08-06T02:22:56;3.22;;;2.28;;
20344;SDS011;10330;48.816;9.278;2023-08-06T02:25:22;6.38;;;2.70;;
20344;SDS011;10330;48.816;9.278;2023-08-06T02:27:49;4.35;;;2.30;;
20344;SDS011;10330;48.816;9.278;2023-08-06T02:30:15;2.58;;;2.30;;
20344;SDS011;10330;48.816;9.278;2023-08-06T02:32:42;3.88;;;2.17;;
20344;SDS011;10330;48.816;9.278;2023-08-06T02:35:08;1.88;;;1.77;;
20344;SDS011;10330;48.816;9.278;2023-08-06T02:37:34;2.22;;;2.03;;
20344;SDS011;10330;48.816;9.278;2023-08-06T02:40:01;5.60;;;2.13;;
20344;SDS011;10330;48.816;9.278;2023-08-06T02:42:28;1.80;;;1.70;;
20344;SDS011;10330;48.816;9.278;2023-08-06T02:44:54;1.88;;;1.77;;
20344;SDS011;10330;48.816;9.278;2023-08-06T02:47:21;2.47;;;1.73;;
20344;SDS011;10330;48.816;9.278;2023-08-06T02:49:47;3.05;;;1.92;;
20344;SDS011;10330;48.816;9.278;2023-08-06T02:52:14;2.10;;;2.00;;
20344;SDS011;10330;48.816;9.278;2023-08-06T02:54:41;1.73;;;1.63;;
20344;SDS011;10330;48.816;9.278;2023-08-06T02:57:08;4.43;;;1.80;;
20344;SDS011;10330;48.816;9.278;2023-08-06T02:59:35;1.90;;;1.80;;
20344;SDS011;10330;48.816;9.278;2023-08-06T03:02:10;1.55;;;1.50;;
20344;SDS011;10330;48.816;9.278;2023-08-06T03:05:00;2.05;;;1.85;;
20344;SDS011;10330;48.816;9.278;2023-08-06T03:07:30;2.10;;;2.00;;
20344;SDS011;10330;48.816;9.278;2023-08-06T03:10:04;1.88;;;1.77;;
20344;SDS011;10330;48.816;9.278;2023-08-06T03:12:31;4.65;;;1.95;;
20344;SDS011;10330;48.816;9.278;2023-08-06T03:14:59;2.70;;;1.30;;
20344;SDS011;10330;48.816;9.278;2023-08-06T03:17:25;2.47;;;2.28;;
20344;SDS011;10330;48.816;9.278;2023-08-06T03:19:52;2.00;;;1.80;;
20344;SDS011;10330;48.816;9.278;2023-08-06T03:22:19;2.00;;;1.80;;
20344;SDS011;10330;48.816;9.278;2023-08-06T03:24:45;7.13;;;2.30;;
20344;SDS011;10330;48.816;9.278;2023-08-06T03:27:12;2.33;;;1.67;;
20344;SDS011;10330;48.816;9.278;2023-08-06T03:29:41;2.35;;;2.00;;
20344;SDS011;10330;48.816;9.278;2023-08-06T03:32:07;2.47;;;1.52;;
20344;SDS011;10330;48.816;9.278;2023-08-06T03:34:34;2.40;;;2.20;;
20344;SDS011;10330;48.816;9.278;2023-08-06T03:37:00;1.90;;;1.80;;
20344;SDS011;10330;48.816;9.278;2023-08-06T03:39:26;2.10;;;1.60;;
20344;SDS011;10330;48.816;9.278;2023-08-06T03:41:53;1.77;;;1.67;;
20344;SDS011;10330;48.816;9.278;2023-08-06T03:44:20;2.00;;;1.90;;
20344;SDS011;10330;48.816;9.278;2023-08-06T03:46:46;1.75;;;1.65;;
20344;SDS011;10330;48.816;9.278;2023-08-06T03:49:13;2.13;;;1.80;;
20344;SDS011;10330;48.816;9.278;2023-08-06T03:51:40;4.95;;;2.00;;
20344;SDS011;10330;48.816;9.278;2023-08-06T03:54:06;1.92;;;1.70;;
20344;SDS011;10330;48.816;9.278;2023-08-06T03:56:32;2.72;;;2.28;;
20344;SDS011;10330;48.816;9.278;2023-08-06T03:58:59;1.67;;;1.58;;
20344;SDS011;10330;48.816;9.278;2023-08-06T04:01:25;2.22;;;2.03;;
20344;SDS011;10330;48.816;9.278;2023-08-06T04:03:53;1.75;;;1.65;;
20344;SDS011;10330;48.816;9.278;2023-08-06T04:06:19;3.22;;;1.60;;
20344;SDS011;10330;48.816;9.278;2023-08-06T04:08:45;6.30;;;1.83;;
20344;SDS011;10330;48.816;9.278;2023-08-06T04:11:11;7.05;;;1.85;;
20344;SDS011;10330;48.816;9.278;2023-08-06T04:13:44;1.95;;;1.85;;
20344;SDS011;10330;48.816;9.278;2023-08-06T04:16:10;1.83;;;1.70;;
20344;SDS011;10330;48.816;9.278;2023-08-06T04:18:36;2.88;;;2.25;;
20344;SDS011;10330;48.816;9.278;2023-08-06T04:21:03;4.20;;;1.80;;
20344;SDS011;10330;48.816;9.278;2023-08-06T04:23:29;2.92;;;1.85;;
20344;SDS011;10330;48.816;9.278;2023-08-06T04:25:59;4.47;;;2.05;;
20344;SDS011;10330;48.816;9.278;2023-08-06T04:28:30;5.32;;;1.73;;
20344;SDS011;10330;48.816;9.278;2023-08-06T04:30:56;1.75;;;1.65;;
20344;SDS011;10330;48.816;9.278;2023-08-06T04:33:24;3.05;;;1.83;;
20344;SDS011;10330;48.816;9.278;2023-08-06T04:35:54;5.43;;;1.92;;
20344;SDS011;10330;48.816;9.278;2023-08-06T04:38:25;1.95;;;1.85;;
20344;SDS011;10330;48.816;9.278;2023-08-06T04:40:52;3.33;;;1.90;;
20344;SDS011;10330;48.816;9.278;2023-08-06T04:43:19;3.58;;;2.35;;
20344;SDS011;10330;48.816;9.278;2023-08-06T04:45:49;2.05;;;1.95;;
20344;SDS011;10330;48.816;9.278;2023-08-06T04:48:16;3.20;;;1.95;;
20344;SDS011;10330;48.816;9.278;2023-08-06T04:50:44;1.70;;;1.60;;
20344;SDS011;10330;48.816;9.278;2023-08-06T04:53:13;3.97;;;1.80;;
20344;SDS011;10330;48.816;9.278;2023-08-06T04:55:40;1.65;;;1.55;;
20344;SDS011;10330;48.816;9.278;2023-08-06T04:58:06;3.97;;;1.70;;
20344;SDS011;10330;48.816;9.278;2023-08-06T05:00:33;1.63;;;1.52;;
20344;SDS011;10330;48.816;9.278;2023-08-06T05:02:59;4.32;;;1.70;;
20344;SDS011;10330;48.816;9.278;2023-08-06T05:05:26;2.88;;;1.90;;
20344;SDS011;10330;48.816;9.278;2023-08-06T05:07:53;3.17;;;2.00;;
20344;SDS011;10330;48.816;9.278;2023-08-06T05:10:20;2.75;;;1.80;;
20344;SDS011;10330;48.816;9.278;2023-08-06T05:12:46;2.35;;;2.15;;
20344;SDS011;10330;48.816;9.278;2023-08-06T05:15:12;4.82;;;2.00;;
20344;SDS011;10330;48.816;9.278;2023-08-06T05:17:38;3.88;;;2.20;;
20344;SDS011;10330;48.816;9.278;2023-08-06T05:20:05;2.78;;;2.20;;
20344;SDS011;10330;48.816;9.278;2023-08-06T05:22:31;3.90;;;1.75;;
20344;SDS011;10330;48.816;9.278;2023-08-06T05:24:57;6.72;;;1.98;;
20344;SDS011;10330;48.816;9.278;2023-08-06T05:27:23;2.03;;;1.52;;
20344;SDS011;10330;48.816;9.278;2023-08-06T05:29:50;2.20;;;1.50;;
20344;SDS011;10330;48.816;9.278;2023-08-06T05:32:20;2.35;;;1.98;;
20344;SDS011;10330;48.816;9.278;2023-08-06T05:34:46;1.98;;;1.83;;
20344;SDS011;10330;48.816;9.278;2023-08-06T05:37:12;2.72;;;1.85;;
20344;SDS011;10330;48.816;9.278;2023-08-06T05:39:38;3.28;;;1.40;;
20344;SDS011;10330;48.816;9.278;2023-08-06T05:42:05;2.35;;;1.85;;
20344;SDS011;10330;48.816;9.278;2023-08-06T05:44:31;3.92;;;1.42;;
20344;SDS011;10330;48.816;9.278;2023-08-06T05:46:57;2.33;;;1.70;;
20344;SDS011;10330;48.816;9.278;2023-08-06T05:49:25;2.00;;;1.50;;
20344;SDS011;10330;48.816;9.278;2023-08-06T05:51:51;1.60;;;1.50;;
20344;SDS011;10330;48.816;9.278;2023-08-06T05:54:20;1.58;;;1.48;;
20344;SDS011;10330;48.816;9.278;2023-08-06T05:56:46;1.55;;;1.25;;
20344;SDS011;10330;48.816;9.278;2023-08-06T05:59:13;1.30;;;1.05;;
20344;SDS011;10330;48.816;9.278;2023-08-06T06:01:39;2.47;;;1.35;;
20344;SDS011;10330;48.816;9.278;2023-08-06T06:04:05;1.48;;;1.20;;
20344;SDS011;10330;48.816;9.278;2023-08-06T06:06:31;2.30;;;1.13;;
20344;SDS011;10330;48.816;9.278;2023-08-06T06:08:57;1.20;;;1.10;;
20344;SDS011;10330;48.816;9.278;2023-08-06T06:11:24;0.98;;;0.98;;
20344;SDS011;10330;48.816;9.278;2023-08-06T06:13:50;3.60;;;1.10;;
20344;SDS011;10330;48.816;9.278;2023-08-06T06:16:17;2.10;;;1.05;;
20344;SDS011;10330;48.816;9.278;2023-08-06T06:18:43;1.00;;;1.00;;
20344;SDS011;10330;48.816;9.278;2023-08-06T06:21:10;0.90;;;0.88;;
20344;SDS011;10330;48.816;9.278;2023-08-06T06:23:36;0.90;;;0.90;;
20344;SDS011;10330;48.816;9.278;2023-08-06T06:26:02;1.27;;;0.90;;
20344;SDS011;10330;48.816;9.278;2023-08-06T06:28:28;1.20;;;1.00;;
20344;SDS011;10330;48.816;9.278;2023-08-06T06:30:59;4.88;;;0.90;;
20344;SDS011;10330;48.816;9.278;2023-08-06T06:33:29;0.90;;;0.80;;
20344;SDS011;10330;48.816;9.278;2023-08-06T06:35:55;0.90;;;0.68;;
20344;SDS011;10330;48.816;9.278;2023-08-06T06:38:21;2.42;;;0.60;;
20344;SDS011;10330;48.816;9.278;2023-08-06T06:40:54;6.85;;;0.70;;
20344;SDS011;10330;48.816;9.278;2023-08-06T06:43:21;1.05;;;1.05;;
20344;SDS011;10330;48.816;9.278;2023-08-06T06:45:52;0.30;;;0.30;;
20344;SDS011;10330;48.816;9.278;2023-08-06T06:48:19;4.88;;;0.90;;
20344;SDS011;10330;48.816;9.278;2023-08-06T06:50:48;1.85;;;0.68;;
20344;SDS011;10330;48.816;9.278;2023-08-06T06:53:14;0.70;;;0.70;;
20344;SDS011;10330;48.816;9.278;2023-08-06T06:55:41;4.30;;;0.80;;
20344;SDS011;10330;48.816;9.278;2023-08-06T06:58:07;0.73;;;0.52;;
20344;SDS011;10330;48.816;9.278;2023-08-06T07:00:35;1.55;;;0.60;;
20344;SDS011;10330;48.816;9.278;2023-08-06T07:03:02;2.92;;;0.80;;
20344;SDS011;10330;48.816;9.278;2023-08-06T07:05:29;0.80;;;0.70;;
20344;SDS011;10330;48.816;9.278;2023-08-06T07:07:55;3.10;;;1.77;;
20344;SDS011;10330;48.816;9.278;2023-08-06T07:10:21;1.30;;;0.55;;
20344;SDS011;10330;48.816;9.278;2023-08-06T07:12:47;1.52;;;0.93;;
20344;SDS011;10330;48.816;9.278;2023-08-06T07:15:13;3.50;;;0.73;;
20344;SDS011;10330;48.816;9.278;2023-08-06T07:17:40;1.27;;;0.55;;
20344;SDS011;10330;48.816;9.278;2023-08-06T07:20:06;1.00;;;0.50;;
20344;SDS011;10330;48.816;9.278;2023-08-06T07:22:33;0.82;;;0.60;;
20344;SDS011;10330;48.816;9.278;2023-08-06T07:24:59;0.65;;;0.40;;
20344;SDS011;10330;48.816;9.278;2023-08-06T07:27:25;0.40;;;0.40;;
20344;SDS011;10330;48.816;9.278;2023-08-06T07:29:51;0.95;;;0.73;;
20344;SDS011;10330;48.816;9.278;2023-08-06T07:32:18;0.88;;;0.60;;
20344;SDS011;10330;48.816;9.278;2023-08-06T07:34:44;2.42;;;1.00;;
20344;SDS011;10330;48.816;9.278;2023-08-06T07:37:10;1.10;;;1.00;;
20344;SDS011;10330;48.816;9.278;2023-08-06T07:39:36;1.02;;;1.02;;
20344;SDS011;10330;48.816;9.278;2023-08-06T07:42:05;1.88;;;0.68;;
20344;SDS011;10330;48.816;9.278;2023-08-06T07:44:32;0.60;;;0.60;;
20344;SDS011;10330;48.816;9.278;2023-08-06T07:46:58;0.70;;;0.70;;
20344;SDS011;10330;48.816;9.278;2023-08-06T07:49:25;0.95;;;0.75;;
20344;SDS011;10330;48.816;9.278;2023-08-06T07:51:52;1.25;;;0.85;;
20344;SDS011;10330;48.816;9.278;2023-08-06T07:54:18;0.68;;;0.68;;
20344;SDS011;10330;48.816;9.278;2023-08-06T07:56:45;0.80;;;0.80;;
20344;SDS011;10330;48.816;9.278;2023-08-06T07:59:11;0.50;;;0.50;;
20344;SDS011;10330;48.816;9.278;2023-08-06T08:01:37;0.50;;;0.50;;
20344;SDS011;10330;48.816;9.278;2023-08-06T08:04:03;0.60;;;0.50;;
20344;SDS011;10330;48.816;9.278;2023-08-06T08:06:30;0.40;;;0.40;;
20344;SDS011;10330;48.816;9.278;2023-08-06T08:08:56;0.30;;;0.30;;
20344;SDS011;10330;48.816;9.278;2023-08-06T08:11:23;1.88;;;0.40;;
20344;SDS011;10330;48.816;9.278;2023-08-06T08:13:49;2.05;;;0.35;;
20344;SDS011;10330;48.816;9.278;2023-08-06T08:16:15;0.50;;;0.47;;
20344;SDS011;10330;48.816;9.278;2023-08-06T08:18:41;0.85;;;0.85;;
20344;SDS011;10330;48.816;9.278;2023-08-06T08:21:07;1.67;;;0.30;;
20344;SDS011;10330;48.816;9.278;2023-08-06T08:23:34;0.80;;;0.40;;
20344;SDS011;10330;48.816;9.278;2023-08-06T08:26:00;1.25;;;0.50;;
20344;SDS011;10330;48.816;9.278;2023-08-06T08:30:57;0.30;;;0.30;;
20344;SDS011;10330;48.816;9.278;2023-08-06T08:33:24;0.30;;;0.30;;
20344;SDS011;10330;48.816;9.278;2023-08-06T08:35:50;0.30;;;0.30;;
20344;SDS011;10330;48.816;9.278;2023-08-06T08:38:16;0.20;;;0.20;;
20344;SDS011;10330;48.816;9.278;2023-08-06T08:40:45;0.22;;;0.22;;
20344;SDS011;10330;48.816;9.278;2023-08-06T08:43:17;0.20;;;0.20;;
20344;SDS011;10330;48.816;9.278;2023-08-06T08:45:46;0.30;;;0.30;;
20344;SDS011;10330;48.816;9.278;2023-08-06T08:48:16;0.50;;;0.50;;
20344;SDS011;10330;48.816;9.278;2023-08-06T08:50:46;0.20;;;0.20;;
20344;SDS011;10330;48.816;9.278;2023-08-06T08:53:14;0.30;;;0.30;;
20344;SDS011;10330;48.816;9.278;2023-08-06T08:55:46;0.40;;;0.40;;
20344;SDS011;10330;48.816;9.278;2023-08-06T08:58:14;0.20;;;0.20;;
20344;SDS011;10330;48.816;9.278;2023-08-06T09:00:44;0.30;;;0.30;;
20344;SDS011;10330;48.816;9.278;2023-08-06T09:03:11;0.30;;;0.30;;
20344;SDS011;10330;48.816;9.278;2023-08-06T09:05:39;0.20;;;0.20;;
20344;SDS011;10330;48.816;9.278;2023-08-06T09:08:10;2.38;;;0.30;;
20344;SDS011;10330;48.816;9.278;2023-08-06T09:10:39;0.20;;;0.20;;
20344;SDS011;10330;48.816;9.278;2023-08-06T09:13:10;0.20;;;0.20;;
20344;SDS011;10330;48.816;9.278;2023-08-06T09:15:37;0.20;;;0.20;;
20344;SDS011;10330;48.816;9.278;2023-08-06T09:18:10;3.47;;;0.28;;
20344;SDS011;10330;48.816;9.278;2023-08-06T09:20:40;0.20;;;0.20;;
20344;SDS011;10330;48.816;9.278;2023-08-06T09:23:07;0.25;;;0.25;;
20344;SDS011;10330;48.816;9.278;2023-08-06T09:25:36;0.30;;;0.30;;
20344;SDS011;10330;48.816;9.278;2023-08-06T09:28:04;0.70;;;0.30;;
20344;SDS011;10330;48.816;9.278;2023-08-06T09:30:30;0.45;;;0.30;;
20344;SDS011;10330;48.816;9.278;2023-08-06T09:32:58;0.20;;;0.20;;
20344;SDS011;10330;48.816;9.278;2023-08-06T09:35:27;0.22;;;0.22;;
20344;SDS011;10330;48.816;9.278;2023-08-06T09:38:07;0.32;;;0.20;;
20344;SDS011;10330;48.816;9.278;2023-08-06T09:40:35;1.58;;;0.30;;
20344;SDS011;10330;48.816;9.278;2023-08-06T09:43:02;0.40;;;0.40;;
20344;SDS011;10330;48.816;9.278;2023-08-06T09:45:30;0.30;;;0.30;;
20344;SDS011;10330;48.816;9.278;2023-08-06T09:48:08;0.30;;;0.30;;
20344;SDS011;10330;48.816;9.278;2023-08-06T09:50:38;0.70;;;0.43;;
20344;SDS011;10330;48.816;9.278;2023-08-06T09:53:05;0.30;;;0.30;;
20344;SDS011;10330;48.816;9.278;2023-08-06T09:55:33;0.30;;;0.30;;
20344;SDS011;10330;48.816;9.278;2023-08-06T09:58:00;0.25;;;0.25;;
20344;SDS011;10330;48.816;9.278;2023-08-06T10:00:26;2.17;;;0.45;;
20344;SDS011;10330;48.816;9.278;2023-08-06T10:02:54;0.38;;;0.38;;
20344;SDS011;10330;48.816;9.278;2023-08-06T10:05:25;0.20;;;0.20;;
20344;SDS011;10330;48.816;9.278;2023-08-06T10:07:53;0.30;;;0.30;;
20344;SDS011;10330;48.816;9.278;2023-08-06T10:10:21;0.20;;;0.20;;
20344;SDS011;10330;48.816;9.278;2023-08-06T10:12:50;0.30;;;0.30;;
20344;SDS011;10330;48.816;9.278;2023-08-06T10:15:21;2.88;;;0.40;;
20344;SDS011;10330;48.816;9.278;2023-08-06T10:17:51;0.38;;;0.35;;
20344;SDS011;10330;48.816;9.278;2023-08-06T10:20:19;0.52;;;0.40;;
20344;SDS011;10330;48.816;9.278;2023-08-06T10:23:04;0.20;;;0.20;;
20344;SDS011;10330;48.816;9.278;2023-08-06T10:25:34;0.40;;;0.40;;
20344;SDS011;10330;48.816;9.278;2023-08-06T10:28:06;0.38;;;0.30;;
20344;SDS011;10330;48.816;9.278;2023-08-06T10:30:46;1.80;;;0.32;;
20344;SDS011;10330;48.816;9.278;2023-08-06T10:33:13;1.85;;;0.30;;
20344;SDS011;10330;48.816;9.278;2023-08-06T10:38:09;0.30;;;0.30;;
20344;SDS011;10330;48.816;9.278;2023-08-06T10:40:48;0.10;;;0.10;;
20344;SDS011;10330;48.816;9.278;2023-08-06T10:46:23;0.30;;;0.30;;
20344;SDS011;10330;48.816;9.278;2023-08-06T10:48:52;0.25;;;0.25;;
20344;SDS011;10330;48.816;9.278;2023-08-06T10:51:18;0.20;;;0.20;;
20344;SDS011;10330;48.816;9.278;2023-08-06T10:53:47;0.20;;;0.20;;
20344;SDS011;10330;48.816;9.278;2023-08-06T10:56:18;0.20;;;0.20;;
20344;SDS011;10330;48.816;9.278;2023-08-06T10:58:50;1.50;;;0.47;;
20344;SDS011;10330;48.816;9.278;2023-08-06T11:01:17;0.22;;;0.22;;
20344;SDS011;10330;48.816;9.278;2023-08-06T11:03:44;0.22;;;0.22;;
20344;SDS011;10330;48.816;9.278;2023-08-06T11:06:16;0.40;;;0.40;;
20344;SDS011;10330;48.816;9.278;2023-08-06T11:08:47;0.30;;;0.30;;
20344;SDS011;10330;48.816;9.278;2023-08-06T11:11:15;0.30;;;0.30;;
20344;SDS011;10330;48.816;9.278;2023-08-06T11:13:43;0.35;;;0.35;;
20344;SDS011;10330;48.816;9.278;2023-08-06T11:16:17;0.30;;;0.30;;
20344;SDS011;10330;48.816;9.278;2023-08-06T11:18:45;0.55;;;0.55;;
20344;SDS011;10330;48.816;9.278;2023-08-06T11:21:13;0.50;;;0.50;;
20344;SDS011;10330;48.816;9.278;2023-08-06T11:23:40;0.30;;;0.30;;
20344;SDS011;10330;48.816;9.278;2023-08-06T11:26:07;1.55;;;0.40;;
20344;SDS011;10330;48.816;9.278;2023-08-06T11:28:33;2.72;;;0.40;;
20344;SDS011;10330;48.816;9.278;2023-08-06T11:31:00;0.35;;;0.35;;
20344;SDS011;10330;48.816;9.278;2023-08-06T11:33:30;0.50;;;0.50;;
20344;SDS011;10330;48.816;9.278;2023-08-06T11:35:58;0.75;;;0.50;;
20344;SDS011;10330;48.816;9.278;2023-08-06T11:38:28;0.40;;;0.40;;
20344;SDS011;10330;48.816;9.278;2023-08-06T11:40:54;0.70;;;0.70;;
20344;SDS011;10330;48.816;9.278;2023-08-06T11:43:21;0.90;;;0.90;;
20344;SDS011;10330;48.816;9.278;2023-08-06T11:45:48;0.63;;;0.63;;
20344;SDS011;10330;48.816;9.278;2023-08-06T11:48:16;0.70;;;0.70;;
20344;SDS011;10330;48.816;9.278;2023-08-06T11:50:43;0.65;;;0.65;;
20344;SDS011;10330;48.816;9.278;2023-08-06T11:53:12;0.70;;;0.70;;
20344;SDS011;10330;48.816;9.278;2023-08-06T11:55:42;0.90;;;0.90;;
20344;SDS011;10330;48.816;9.278;2023-08-06T11:58:10;2.88;;;1.30;;
20344;SDS011;10330;48.816;9.278;2023-08-06T12:00:37;1.10;;;1.00;;
20344;SDS011;10330;48.816;9.278;2023-08-06T12:03:04;1.30;;;0.90;;
20344;SDS011;10330;48.816;9.278;2023-08-06T12:05:31;2.22;;;1.15;;
20344;SDS011;10330;48.816;9.278;2023-08-06T12:07:59;1.40;;;0.95;;
20344;SDS011;10330;48.816;9.278;2023-08-06T12:10:27;1.40;;;1.30;;
20344;SDS011;10330;48.816;9.278;2023-08-06T12:12:55;1.00;;;1.00;;
20344;SDS011;10330;48.816;9.278;2023-08-06T12:15:21;2.85;;;1.30;;
20344;SDS011;10330;48.816;9.278;2023-08-06T12:17:49;1.60;;;1.50;;
20344;SDS011;10330;48.816;9.278;2023-08-06T12:20:15;1.10;;;1.00;;
20344;SDS011;10330;48.816;9.278;2023-08-06T12:22:42;2.30;;;1.10;;
20344;SDS011;10330;48.816;9.278;2023-08-06T12:25:09;1.35;;;1.25;;
20344;SDS011;10330;48.816;9.278;2023-08-06T12:27:43;1.08;;;1.00;;
20344;SDS011;10330;48.816;9.278;2023-08-06T12:30:10;1.13;;;1.13;;
20344;SDS011;10330;48.816;9.278;2023-08-06T12:32:37;1.15;;;1.15;;
20344;SDS011;10330;48.816;9.278;2023-08-06T12:35:04;5.15;;;1.10;;
20344;SDS011;10330;48.816;9.278;2023-08-06T12:37:33;5.80;;;1.40;;
20344;SDS011;10330;48.816;9.278;2023-08-06T12:39:59;1.00;;;1.00;;
20344;SDS011;10330;48.816;9.278;2023-08-06T12:42:28;1.48;;;1.38;;
20344;SDS011;10330;48.816;9.278;2023-08-06T12:44:54;1.55;;;1.45;;
20344;SDS011;10330;48.816;9.278;2023-08-06T12:47:29;1.20;;;1.20;;
20344;SDS011;10330;48.816;9.278;2023-08-06T12:49:55;0.90;;;0.88;;
20344;SDS011;10330;48.816;9.278;2023-08-06T12:52:22;3.05;;;1.23;;
20344;SDS011;10330;48.816;9.278;2023-08-06T12:54:49;3.80;;;1.10;;
20344;SDS011;10330;48.816;9.278;2023-08-06T12:57:15;0.98;;;0.98;;
20344;SDS011;10330;48.816;9.278;2023-08-06T12:59:42;1.30;;;1.17;;
20344;SDS011;10330;48.816;9.278;2023-08-06T13:02:09;1.25;;;0.80;;
20344;SDS011;10330;48.816;9.278;2023-08-06T13:04:35;0.75;;;0.75;;
20344;SDS011;10330;48.816;9.278;2023-08-06T13:07:37;0.82;;;0.82;;
20344;SDS011;10330;48.816;9.278;2023-08-06T13:10:03;0.85;;;0.85;;
20344;SDS011;10330;48.816;9.278;2023-08-06T13:12:39;1.00;;;1.00;;
20344;SDS011;10330;48.816;9.278;2023-08-06T13:15:35;3.30;;;1.23;;
20344;SDS011;10330;48.816;9.278;2023-08-06T13:18:05;1.10;;;0.70;;
20344;SDS011;10330;48.816;9.278;2023-08-06T13:20:31;2.45;;;1.50;;
20344;SDS011;10330;48.816;9.278;2023-08-06T13:22:58;6.40;;;1.30;;
20344;SDS011;10330;48.816;9.278;2023-08-06T13:25:27;0.60;;;0.60;;
20344;SDS011;10330;48.816;9.278;2023-08-06T13:27:54;0.93;;;0.52;;
20344;SDS011;10330;48.816;9.278;2023-08-06T13:30:20;0.85;;;0.85;;
20344;SDS011;10330;48.816;9.278;2023-08-06T13:32:48;0.93;;;0.93;;
20344;SDS011;10330;48.816;9.278;2023-08-06T13:35:14;1.10;;;0.60;;
20344;SDS011;10330;48.816;9.278;2023-08-06T13:37:44;1.02;;;0.73;;
20344;SDS011;10330;48.816;9.278;2023-08-06T13:40:35;0.95;;;0.88;;
20344;SDS011;10330;48.816;9.278;2023-08-06T13:43:01;0.60;;;0.60;;
20344;SDS011;10330;48.816;9.278;2023-08-06T13:45:28;0.93;;;0.93;;
20344;SDS011;10330;48.816;9.278;2023-08-06T13:47:57;0.60;;;0.60;;
20344;SDS011;10330;48.816;9.278;2023-08-06T13:50:23;0.60;;;0.60;;
20344;SDS011;10330;48.816;9.278;2023-08-06T13:52:51;1.40;;;0.57;;
20344;SDS011;10330;48.816;9.278;2023-08-06T13:55:18;0.50;;;0.50;;
20344;SDS011;10330;48.816;9.278;2023-08-06T13:57:45;0.50;;;0.50;;
20344;SDS011;10330;48.816;9.278;2023-08-06T14:00:11;0.55;;;0.55;;
20344;SDS011;10330;48.816;9.278;2023-08-06T14:02:42;0.40;;;0.40;;
20344;SDS011;10330;48.816;9.278;2023-08-06T14:05:09;5.70;;;0.77;;
20344;SDS011;10330;48.816;9.278;2023-08-06T14:07:36;0.60;;;0.60;;
20344;SDS011;10330;48.816;9.278;2023-08-06T14:10:02;0.95;;;0.57;;
20344;SDS011;10330;48.816;9.278;2023-08-06T14:12:28;0.43;;;0.43;;
20344;SDS011;10330;48.816;9.278;2023-08-06T14:14:54;0.70;;;0.70;;
20344;SDS011;10330;48.816;9.278;2023-08-06T14:17:21;0.73;;;0.60;;
20344;SDS011;10330;48.816;9.278;2023-08-06T14:19:47;0.52;;;0.50;;
20344;SDS011;10330;48.816;9.278;2023-08-06T14:22:13;0.73;;;0.73;;
20344;SDS011;10330;48.816;9.278;2023-08-06T14:24:39;0.70;;;0.70;;
20344;SDS011;10330;48.816;9.278;2023-08-06T14:27:06;1.85;;;0.35;;
20344;SDS011;10330;48.816;9.278;2023-08-06T14:29:32;4.57;;;1.00;;
20344;SDS011;10330;48.816;9.278;2023-08-06T14:31:58;5.05;;;1.08;;
20344;SDS011;10330;48.816;9.278;2023-08-06T14:34:24;2.03;;;0.88;;
20344;SDS011;10330;48.816;9.278;2023-08-06T14:36:51;0.40;;;0.40;;
20344;SDS011;10330;48.816;9.278;2023-08-06T14:39:17;2.83;;;0.43;;
20344;SDS011;10330;48.816;9.278;2023-08-06T14:41:43;0.60;;;0.60;;
20344;SDS011;10330;48.816;9.278;2023-08-06T14:44:09;0.70;;;0.70;;
20344;SDS011;10330;48.816;9.278;2023-08-06T14:46:38;2.13;;;0.57;;
20344;SDS011;10330;48.816;9.278;2023-08-06T14:49:04;1.33;;;0.88;;
20344;SDS011;10330;48.816;9.278;2023-08-06T14:51:31;1.08;;;0.45;;
20344;SDS011;10330;48.816;9.278;2023-08-06T14:54:02;0.70;;;0.70;;
20344;SDS011;10330;48.816;9.278;2023-08-06T14:56:28;1.17;;;0.77;;
20344;SDS011;10330;48.816;9.278;2023-08-06T14:58:55;1.05;;;1.05;;
20344;SDS011;10330;48.816;9.278;2023-08-06T15:01:21;1.08;;;1.08;;
20344;SDS011;10330;48.816;9.278;2023-08-06T15:03:47;3.72;;;0.90;;
20344;SDS011;10330;48.816;9.278;2023-08-06T15:06:16;2.38;;;0.60;;
20344;SDS011;10330;48.816;9.278;2023-08-06T15:08:42;0.60;;;0.55;;